createdAt,value
2023-10-07T00:00:33.172Z,101173.47
2023-10-07T00:03:35.916Z,101172.72
2023-10-07T00:06:39.257Z,101173.69
2023-10-07T00:09:44.748Z,101171.44
2023-10-07T00:12:47.534Z,101180.06
2023-10-07T00:15:53.200Z,101177.31
2023-10-07T00:18:56.168Z,101177.41
2023-10-07T00:22:00.697Z,101172.72
2023-10-07T00:25:06.514Z,101170.41
2023-10-07T00:28:19.250Z,101184.78
2023-10-07T00:31:28.837Z,101178.28
2023-10-07T00:34:33.162Z,101175.28
2023-10-07T00:37:36.017Z,101174.66
2023-10-07T00:40:46.668Z,101176.19
2023-10-07T00:43:54.506Z,101171.88
2023-10-07T00:47:13.127Z,101169.91
2023-10-07T00:50:16.903Z,101171.97
2023-10-07T00:53:25.591Z,101167.38
2023-10-07T00:56:34.439Z,101177.78
2023-10-07T00:59:41.549Z,101181.81
2023-10-07T01:02:47.083Z,101176.19
2023-10-07T01:06:11.389Z,101173.59
2023-10-07T01:09:16.159Z,101177.75
2023-10-07T01:12:19.232Z,101165.31
2023-10-07T01:15:24.708Z,101172.50
2023-10-07T01:18:29.132Z,101167.03
2023-10-07T01:21:34.996Z,101163.59
2023-10-07T01:24:47.396Z,101159.75
2023-10-07T01:27:54.763Z,101167.22
2023-10-07T01:31:09.482Z,101159.19
2023-10-07T01:34:15.148Z,101152.28
2023-10-07T01:37:22.495Z,101151.28
2023-10-07T01:40:28.984Z,101157.38
2023-10-07T01:43:31.756Z,101164.97
2023-10-07T01:46:36.073Z,101157.63
2023-10-07T01:49:40.831Z,101163.59
2023-10-07T01:52:47.349Z,101151.66
2023-10-07T01:55:53.605Z,101152.09
2023-10-07T01:58:58.655Z,101148.63
2023-10-07T02:02:07.465Z,101151.28
2023-10-07T02:05:13.539Z,101134.53
2023-10-07T02:08:22.228Z,101128.91
2023-10-07T02:11:31.717Z,101120.47
2023-10-07T02:14:35.426Z,101118.28
2023-10-07T02:17:38.240Z,101115.38
2023-10-07T02:20:40.980Z,101104.13
2023-10-07T02:23:44.710Z,101111.97
2023-10-07T02:26:54.782Z,101114.16
2023-10-07T02:29:58.807Z,101118.06
2023-10-07T02:33:02.842Z,101118.78
2023-10-07T02:36:06.763Z,101110.16
2023-10-07T02:39:24.980Z,101123.34
2023-10-07T02:42:30.165Z,101108.22
2023-10-07T02:45:40.547Z,101112.94
2023-10-07T02:48:43.356Z,101113.03
2023-10-07T02:51:47.964Z,101119.69
2023-10-07T02:55:11.476Z,101119.69
2023-10-07T02:58:26.052Z,101127.94
2023-10-07T03:01:30.093Z,101125.63
2023-10-07T03:04:36.031Z,101121.38
2023-10-07T03:07:42.751Z,101119.25
2023-10-07T03:10:45.666Z,101110.16
2023-10-07T03:13:50.689Z,101118.91
2023-10-07T03:17:03.308Z,101117.25
2023-10-07T03:20:20.806Z,101129.19
2023-10-07T03:23:27.276Z,101139.03
2023-10-07T03:26:33.561Z,101145.19
2023-10-07T03:29:38.962Z,101150.00
2023-10-07T03:32:56.395Z,101149.94
2023-10-07T03:36:15.763Z,101148.03
2023-10-07T03:39:24.284Z,101152.50
2023-10-07T03:42:26.988Z,101151.16
2023-10-07T03:45:31.166Z,101154.19
2023-10-07T03:48:33.885Z,101152.94
2023-10-07T03:51:36.649Z,101149.59
2023-10-07T03:54:41.762Z,101149.00
2023-10-07T03:57:44.699Z,101151.50
2023-10-07T04:00:48.673Z,101144.22
2023-10-07T04:03:53.449Z,101134.63
2023-10-07T04:07:01.565Z,101146.69
2023-10-07T04:10:14.088Z,101151.66
2023-10-07T04:13:23.475Z,101163.28
2023-10-07T04:16:30.666Z,101160.53
2023-10-07T04:19:40.334Z,101154.41
2023-10-07T04:22:45.488Z,101155.69
2023-10-07T04:25:48.902Z,101165.56
2023-10-07T04:28:54.653Z,101164.47
2023-10-07T04:32:00.051Z,101158.66
2023-10-07T04:35:17.512Z,101167.84
2023-10-07T04:38:40.448Z,101169.50
2023-10-07T04:41:44.377Z,101163.28
2023-10-07T04:45:04.712Z,101173.00
2023-10-07T04:48:22.850Z,101177.72
2023-10-07T04:51:47.806Z,101166.88
2023-10-07T04:54:53.886Z,101167.19
2023-10-07T04:57:58.601Z,101167.91
2023-10-07T05:01:23.312Z,101169.09
2023-10-07T05:04:29.654Z,101165.72
2023-10-07T05:07:32.978Z,101160.56
2023-10-07T05:10:39.622Z,101164.59
2023-10-07T05:13:45.929Z,101155.84
2023-10-07T05:16:48.560Z,101160.06
2023-10-07T05:19:53.135Z,101169.75
2023-10-07T05:22:56.232Z,101166.75
2023-10-07T05:26:04.406Z,101171.81
2023-10-07T05:29:08.798Z,101172.63
2023-10-07T05:32:12.845Z,101172.53
2023-10-07T05:35:19.848Z,101172.03
2023-10-07T05:38:22.511Z,101159.22
2023-10-07T05:41:26.244Z,101163.91
2023-10-07T05:44:29.658Z,101166.41
2023-10-07T05:47:34.042Z,101171.00
2023-10-07T05:50:38.049Z,101158.91
2023-10-07T05:53:42.542Z,101157.53
2023-10-07T05:56:48.443Z,101163.69
2023-10-07T05:59:52.005Z,101166.03
2023-10-07T06:02:56.676Z,101171.38
2023-10-07T06:06:02.366Z,101173.09
2023-10-07T06:09:05.266Z,101177.38
2023-10-07T06:12:08.637Z,101176.63
2023-10-07T06:15:12.227Z,101185.97
2023-10-07T06:18:19.670Z,101168.09
2023-10-07T06:21:28.723Z,101167.19
2023-10-07T06:24:33.714Z,101167.13
2023-10-07T06:27:38.200Z,101173.59
2023-10-07T06:30:43.959Z,101171.03
2023-10-07T06:33:48.189Z,101174.44
2023-10-07T06:36:53.518Z,101163.25
2023-10-07T06:39:58.376Z,101170.06
2023-10-07T06:43:01.049Z,101174.63
2023-10-07T06:46:03.941Z,101172.94
2023-10-07T06:49:07.543Z,101173.09
2023-10-07T06:52:13.799Z,101182.75
2023-10-07T06:55:18.252Z,101190.63
2023-10-07T06:58:23.879Z,101188.88
2023-10-07T07:01:51.208Z,101181.25
2023-10-07T07:04:54.124Z,101188.59
2023-10-07T07:08:04.875Z,101188.09
2023-10-07T07:11:11.474Z,101189.19
2023-10-07T07:14:14.373Z,101194.09
2023-10-07T07:17:34.085Z,101197.06
2023-10-07T07:20:51.042Z,101184.97
2023-10-07T07:23:55.251Z,101186.88
2023-10-07T07:26:57.993Z,101191.63
2023-10-07T07:30:02.205Z,101195.88
2023-10-07T07:33:10.285Z,101194.28
2023-10-07T07:36:19.669Z,101191.97
2023-10-07T07:39:24.700Z,101195.25
2023-10-07T07:42:28.930Z,101195.00
2023-10-07T07:45:36.804Z,101196.38
2023-10-07T07:48:39.668Z,101189.66
2023-10-07T07:51:42.776Z,101192.22
2023-10-07T07:54:46.845Z,101189.91
2023-10-07T07:57:51.545Z,101195.00
2023-10-07T08:01:05.953Z,101191.34
2023-10-07T08:04:18.230Z,101188.25
2023-10-07T08:07:26.110Z,101189.47
2023-10-07T08:10:30.486Z,101194.75
2023-10-07T08:13:33.433Z,101191.22
2023-10-07T08:16:47.898Z,101193.94
2023-10-07T08:19:51.749Z,101194.03
2023-10-07T08:22:54.540Z,101189.81
2023-10-07T08:26:10.079Z,101200.16
2023-10-07T08:29:32.747Z,101193.69
2023-10-07T08:32:38.742Z,101196.00
2023-10-07T08:35:44.456Z,101195.41
2023-10-07T08:38:51.232Z,101196.50
2023-10-07T08:41:59.422Z,101192.34
2023-10-07T08:45:02.155Z,101201.28
2023-10-07T08:48:16.308Z,101193.06
2023-10-07T08:51:23.790Z,101195.25
2023-10-07T08:54:32.894Z,101187.56
2023-10-07T08:57:38.238Z,101189.28
2023-10-07T09:00:46.677Z,101187.00
2023-10-07T09:03:51.394Z,101192.94
2023-10-07T09:06:54.368Z,101194.63
2023-10-07T09:10:07.729Z,101192.13
2023-10-07T09:13:20.181Z,101187.81
2023-10-07T09:16:26.312Z,101189.28
2023-10-07T09:19:30.529Z,101191.25
2023-10-07T09:22:36.259Z,101186.31
2023-10-07T09:25:39.009Z,101191.47
2023-10-07T09:28:47.901Z,101186.63
2023-10-07T09:31:57.702Z,101177.84
2023-10-07T09:35:00.904Z,101171.16
2023-10-07T09:38:09.219Z,101182.25
2023-10-07T09:41:25.114Z,101182.09
2023-10-07T09:44:29.571Z,101188.47
2023-10-07T09:47:34.590Z,101193.44
2023-10-07T09:50:39.011Z,101199.38
2023-10-07T09:53:58.945Z,101207.28
2023-10-07T09:57:22.101Z,101201.25
2023-10-07T10:00:41.093Z,101196.25
2023-10-07T10:04:01.156Z,101193.66
2023-10-07T10:07:20.604Z,101187.84
2023-10-07T10:10:32.913Z,101183.06
2023-10-07T10:13:49.558Z,101176.78
2023-10-07T10:16:55.831Z,101185.63
2023-10-07T10:20:01.730Z,101181.19
2023-10-07T10:23:09.144Z,101188.00
2023-10-07T10:26:22.007Z,101190.88
2023-10-07T10:29:27.451Z,101193.28
2023-10-07T10:32:32.303Z,101189.28
2023-10-07T10:35:41.345Z,101195.66
2023-10-07T10:38:46.273Z,101202.19
2023-10-07T10:41:50.148Z,101205.03
2023-10-07T10:44:54.311Z,101209.41
2023-10-07T10:48:00.616Z,101209.16
2023-10-07T10:51:06.515Z,101207.56
2023-10-07T10:54:10.550Z,101192.44
2023-10-07T10:57:15.846Z,101206.31
2023-10-07T11:00:22.374Z,101210.88
2023-10-07T11:03:26.478Z,101212.22
2023-10-07T11:06:29.393Z,101218.00
2023-10-07T11:09:37.630Z,101219.50
2023-10-07T11:12:41.831Z,101211.25
2023-10-07T11:15:59.419Z,101215.09
2023-10-07T11:19:12.651Z,101219.59
2023-10-07T11:22:19.249Z,101230.31
2023-10-07T11:25:25.718Z,101218.41
2023-10-07T11:28:34.223Z,101229.47
2023-10-07T11:31:38.684Z,101216.59
2023-10-07T11:34:44.834Z,101217.19
2023-10-07T11:37:58.486Z,101222.56
2023-10-07T11:41:01.657Z,101214.25
2023-10-07T11:44:04.924Z,101214.09
2023-10-07T11:47:09.036Z,101227.91
2023-10-07T11:50:14.972Z,101215.09
2023-10-07T11:53:20.821Z,101230.31
2023-10-07T11:56:24.038Z,101229.63
2023-10-07T11:59:28.404Z,101235.69
2023-10-07T12:02:31.762Z,101241.41
2023-10-07T12:05:40.058Z,101235.72
2023-10-07T12:08:42.674Z,101240.19
2023-10-07T12:11:45.322Z,101239.59
2023-10-07T12:14:48.817Z,101248.59
2023-10-07T12:17:51.845Z,101251.66
2023-10-07T12:20:57.320Z,101255.25
2023-10-07T12:24:02.825Z,101253.69
2023-10-07T12:27:07.799Z,101253.69
2023-10-07T12:30:12.441Z,101250.88
2023-10-07T12:33:28.658Z,101257.69
2023-10-07T12:36:40.428Z,101250.69
2023-10-07T12:39:46.020Z,101257.19
2023-10-07T12:42:51.679Z,101255.41
2023-10-07T12:45:54.353Z,101260.50
2023-10-07T12:48:56.999Z,101251.16
2023-10-07T12:52:01.008Z,101251.09
2023-10-07T12:55:04.225Z,101251.28
2023-10-07T12:58:10.325Z,101254.66
2023-10-07T13:01:14.171Z,101255.16
2023-10-07T13:04:16.922Z,101253.81
2023-10-07T13:07:20.980Z,101252.59
2023-10-07T13:10:23.618Z,101249.34
2023-10-07T13:13:26.587Z,101253.91
2023-10-07T13:16:38.214Z,101253.53
2023-10-07T13:19:44.850Z,101255.06
2023-10-07T13:22:48.960Z,101254.31
2023-10-07T13:25:52.157Z,101253.91
2023-10-07T13:28:55.672Z,101237.81
2023-10-07T13:31:59.629Z,101233.28
2023-10-07T13:35:07.273Z,101226.81
2023-10-07T13:38:12.227Z,101230.00
2023-10-07T13:41:18.413Z,101236.81
2023-10-07T13:44:24.052Z,101233.13
2023-10-07T13:47:27.493Z,101231.31
2023-10-07T13:50:31.074Z,101228.44
2023-10-07T13:53:52.468Z,101228.78
2023-10-07T13:56:59.147Z,101231.56
2023-10-07T14:00:16.689Z,101237.38
2023-10-07T14:03:21.887Z,101242.13
2023-10-07T14:06:28.580Z,101231.63
2023-10-07T14:09:32.887Z,101244.47
2023-10-07T14:12:36.193Z,101241.09
2023-10-07T14:15:38.929Z,101246.38
2023-10-07T14:18:42.211Z,101252.31
2023-10-07T14:21:46.723Z,101243.00
2023-10-07T14:24:50.689Z,101241.09
2023-10-07T14:27:54.315Z,101247.41
2023-10-07T14:30:57.086Z,101241.53
2023-10-07T14:33:59.734Z,101245.50
2023-10-07T14:37:02.416Z,101242.94
2023-10-07T14:40:07.775Z,101239.19
2023-10-07T14:43:13.653Z,101243.00
2023-10-07T14:46:16.316Z,101247.59
2023-10-07T14:49:19.793Z,101256.00
2023-10-07T14:52:22.794Z,101239.25
2023-10-07T14:55:26.844Z,101236.25
2023-10-07T14:58:31.296Z,101235.69
2023-10-07T15:01:33.944Z,101231.78
2023-10-07T15:04:36.654Z,101224.88
2023-10-07T15:07:39.684Z,101239.38
2023-10-07T15:10:47.829Z,101235.22
2023-10-07T15:13:51.965Z,101231.19
2023-10-07T15:16:55.328Z,101232.59
2023-10-07T15:19:58.236Z,101236.34
2023-10-07T15:23:00.975Z,101233.50
2023-10-07T15:26:09.882Z,101223.22
2023-10-07T15:29:12.794Z,101229.19
2023-10-07T15:32:15.695Z,101221.50
2023-10-07T15:35:18.834Z,101224.50
2023-10-07T15:38:23.302Z,101227.38
2023-10-07T15:41:27.458Z,101218.25
2023-10-07T15:44:30.183Z,101223.09
2023-10-07T15:47:33.041Z,101235.94
2023-10-07T15:50:35.747Z,101227.22
2023-10-07T15:53:38.914Z,101229.28
2023-10-07T15:56:43.175Z,101241.56
2023-10-07T15:59:46.042Z,101237.72
2023-10-07T16:02:49.483Z,101242.47
2023-10-07T16:05:52.414Z,101241.63
2023-10-07T16:08:55.124Z,101239.63
2023-10-07T16:11:59.118Z,101245.16
2023-10-07T16:15:02.458Z,101244.13
2023-10-07T16:18:05.894Z,101247.56
2023-10-07T16:21:10.983Z,101256.38
2023-10-07T16:24:14.561Z,101236.34
2023-10-07T16:27:18.624Z,101249.25
2023-10-07T16:30:21.439Z,101258.34
2023-10-07T16:33:24.474Z,101251.38
2023-10-07T16:36:29.462Z,101263.22
2023-10-07T16:39:32.840Z,101275.75
2023-10-07T16:42:36.920Z,101269.97
2023-10-07T16:45:40.394Z,101283.50
2023-10-07T16:48:44.117Z,101280.63
2023-10-07T16:51:48.767Z,101282.56
2023-10-07T16:54:51.709Z,101285.78
2023-10-07T16:57:55.690Z,101297.47
2023-10-07T17:00:59.898Z,101286.28
2023-10-07T17:04:02.739Z,101287.16
2023-10-07T17:07:06.677Z,101300.03
2023-10-07T17:10:10.121Z,101287.00
2023-10-07T17:13:14.568Z,101290.91
2023-10-07T17:16:18.182Z,101305.06
2023-10-07T17:19:20.928Z,101308.81
2023-10-07T17:22:23.716Z,101305.81
2023-10-07T17:25:28.109Z,101316.88
2023-10-07T17:28:32.592Z,101315.16
2023-10-07T17:31:35.420Z,101318.59
2023-10-07T17:34:38.236Z,101319.75
2023-10-07T17:37:41.157Z,101333.16
2023-10-07T17:40:43.869Z,101334.69
2023-10-07T17:43:47.847Z,101335.19
2023-10-07T17:46:50.823Z,101336.78
2023-10-07T17:49:55.128Z,101339.44
2023-10-07T17:52:59.210Z,101350.63
2023-10-07T17:56:06.920Z,101368.59
2023-10-07T17:59:12.058Z,101373.34
2023-10-07T18:02:14.958Z,101383.38
2023-10-07T18:05:17.722Z,101391.19
2023-10-07T18:08:20.439Z,101395.38
2023-10-07T18:11:23.274Z,101392.00
2023-10-07T18:14:27.388Z,101394.03
2023-10-07T18:17:30.064Z,101405.66
2023-10-07T18:20:32.805Z,101401.41
2023-10-07T18:23:38.084Z,101415.28
2023-10-07T18:26:41.284Z,101418.53
2023-10-07T18:29:45.377Z,101420.06
2023-10-07T18:32:49.136Z,101423.47
2023-10-07T18:35:51.958Z,101421.25
2023-10-07T18:38:54.611Z,101427.13
2023-10-07T18:41:57.290Z,101415.63
2023-10-07T18:45:02.188Z,101424.78
2023-10-07T18:48:05.673Z,101424.53
2023-10-07T18:51:08.907Z,101416.25
2023-10-07T18:54:12.296Z,101426.00
2023-10-07T18:57:15.073Z,101417.44
2023-10-07T19:00:20.116Z,101428.31
2023-10-07T19:03:23.385Z,101436.38
2023-10-07T19:06:27.105Z,101437.00
2023-10-07T19:09:29.718Z,101451.44
2023-10-07T19:12:32.354Z,101450.44
2023-10-07T19:15:42.706Z,101462.03
2023-10-07T19:18:45.598Z,101462.84
2023-10-07T19:21:48.292Z,101458.50
2023-10-07T19:24:50.929Z,101460.13
2023-10-07T19:27:53.573Z,101457.47
2023-10-07T19:30:57.741Z,101454.00
2023-10-07T19:34:00.519Z,101451.88
2023-10-07T19:37:05.832Z,101459.09
2023-10-07T19:40:10.027Z,101462.53
2023-10-07T19:43:12.676Z,101465.81
2023-10-07T19:46:16.737Z,101472.84
2023-10-07T19:49:19.385Z,101476.69
2023-10-07T19:52:22.171Z,101483.25
2023-10-07T19:55:24.802Z,101487.47
2023-10-07T19:58:27.885Z,101488.84
2023-10-07T20:01:31.928Z,101480.66
2023-10-07T20:04:34.633Z,101498.00
2023-10-07T20:07:37.842Z,101493.56
2023-10-07T20:10:42.765Z,101504.31
2023-10-07T20:13:45.380Z,101496.41
2023-10-07T20:16:50.661Z,101501.53
2023-10-07T20:19:53.985Z,101504.22
2023-10-07T20:22:56.641Z,101503.19
2023-10-07T20:26:03.859Z,101508.91
2023-10-07T20:29:06.548Z,101500.31
2023-10-07T20:32:11.097Z,101507.16
2023-10-07T20:35:13.915Z,101510.66
2023-10-07T20:38:16.735Z,101507.16
2023-10-07T20:41:19.484Z,101507.53
2023-10-07T20:44:22.259Z,101514.56
2023-10-07T20:47:26.488Z,101517.72
2023-10-07T20:50:30.326Z,101513.44
2023-10-07T20:53:34.443Z,101522.28
2023-10-07T20:56:38.512Z,101530.00
2023-10-07T20:59:41.271Z,101529.34
2023-10-07T21:02:50.694Z,101524.88
2023-10-07T21:05:54.512Z,101542.97
2023-10-07T21:08:57.233Z,101543.59
2023-10-07T21:12:00.456Z,101551.13
2023-10-07T21:15:03.345Z,101553.41
2023-10-07T21:18:08.407Z,101554.63
2023-10-07T21:21:12.420Z,101560.59
2023-10-07T21:24:15.061Z,101560.34
2023-10-07T21:27:17.696Z,101567.41
2023-10-07T21:30:23.800Z,101569.28
2023-10-07T21:33:27.794Z,101563.34
2023-10-07T21:36:30.591Z,101571.50
2023-10-07T21:39:33.280Z,101580.16
2023-10-07T21:42:36.482Z,101581.00
2023-10-07T21:45:39.856Z,101585.81
2023-10-07T21:48:43.931Z,101578.63
2023-10-07T21:51:46.725Z,101576.66
2023-10-07T21:54:50.039Z,101563.47
2023-10-07T21:57:53.228Z,101567.00
2023-10-07T22:01:09.076Z,101574.72
2023-10-07T22:04:16.038Z,101573.97
2023-10-07T22:07:19.115Z,101576.91
2023-10-07T22:10:22.362Z,101583.66
2023-10-07T22:13:27.885Z,101592.16
2023-10-07T22:16:30.754Z,101615.28
2023-10-07T22:19:35.499Z,101621.75
2023-10-07T22:22:38.132Z,101631.41
2023-10-07T22:25:41.517Z,101635.44
2023-10-07T22:28:44.276Z,101642.28
2023-10-07T22:31:53.495Z,101652.94
2023-10-07T22:35:05.539Z,101659.88
2023-10-07T22:38:10.122Z,101664.81
2023-10-07T22:41:19.171Z,101654.75
2023-10-07T22:44:23.225Z,101649.06
2023-10-07T22:47:26.146Z,101648.66
2023-10-07T22:50:35.318Z,101656.59
2023-10-07T22:53:43.606Z,101648.59
2023-10-07T22:56:46.322Z,101662.84
2023-10-07T22:59:50.166Z,101670.44
2023-10-07T23:02:52.894Z,101676.31
2023-10-07T23:06:00.326Z,101684.06
2023-10-07T23:09:06.746Z,101686.28
2023-10-07T23:12:17.712Z,101691.19
2023-10-07T23:15:25.223Z,101694.72
2023-10-07T23:18:28.307Z,101699.59
2023-10-07T23:21:55.361Z,101696.28
2023-10-07T23:25:11.931Z,101703.56
2023-10-07T23:28:23.512Z,101697.84
2023-10-07T23:31:35.656Z,101696.44
2023-10-07T23:34:38.652Z,101700.78
2023-10-07T23:37:43.806Z,101690.06
2023-10-07T23:40:52.874Z,101684.28
2023-10-07T23:43:56.116Z,101690.66
2023-10-07T23:46:59.133Z,101681.19
2023-10-07T23:50:02.004Z,101683.84
2023-10-07T23:53:07.292Z,101691.63
2023-10-07T23:56:12.482Z,101692.53
2023-10-07T23:59:15.645Z,101705.78
